Time;durP1;ratioP1;P1;durP2;ratioP2;P2;SDS_P1;SDS_P2;PMS_P1;PMS_P2;Temp;Humidity;BMP_temperature;BMP_pressure;BME280_temperature;BME280_humidity;BME280_pressure;Samples;Min_cycle;Max_cycle;Signal;HPM_P1;HPM_P2
2023/06/03 00:00:13;;;;;;;3.87;1.90;;;11.60;1.00;;;;;;5097784;28;20554;-68
2023/06/03 00:02:40;;;;;;;3.10;1.90;;;11.60;1.00;;;;;;5098011;28;20519;-68
2023/06/03 00:05:09;;;;;;;3.23;1.77;;;11.50;1.00;;;;;;5098044;28;20544;-68
2023/06/03 00:07:36;;;;;;;3.87;2.23;;;11.50;1.00;;;;;;5097999;28;20790;-68
2023/06/03 00:10:03;;;;;;;2.90;1.90;;;11.50;1.00;;;;;;5097543;28;20477;-68
2023/06/03 00:12:30;;;;;;;3.30;2.40;;;11.40;1.00;;;;;;5097457;28;21039;-68
2023/06/03 00:14:57;;;;;;;2.63;2.17;;;11.40;1.00;;;;;;5097397;28;20918;-68
2023/06/03 00:17:26;;;;;;;6.47;2.60;;;11.30;1.00;;;;;;5097878;28;20471;-68
2023/06/03 00:19:54;;;;;;;3.80;2.33;;;11.30;1.00;;;;;;5097309;28;20449;-69
2023/06/03 00:22:23;;;;;;;6.20;2.30;;;11.30;1.00;;;;;;5097449;28;20508;-68
2023/06/03 00:24:50;;;;;;;3.70;2.70;;;11.20;1.00;;;;;;5097477;28;20535;-68
2023/06/03 00:27:17;;;;;;;4.53;2.00;;;11.20;1.00;;;;;;5097472;28;20551;-68
2023/06/03 00:29:43;;;;;;;5.17;2.33;;;11.20;1.00;;;;;;5097363;28;20576;-68
2023/06/03 00:32:10;;;;;;;2.23;1.93;;;11.10;1.00;;;;;;5097339;28;20461;-68
2023/06/03 00:34:37;;;;;;;3.43;2.33;;;11.10;1.00;;;;;;5097089;28;20917;-66
2023/06/03 00:37:04;;;;;;;6.73;1.77;;;11.00;1.00;;;;;;5096841;28;20481;-68
2023/06/03 00:39:34;;;;;;;2.67;2.00;;;11.00;1.00;;;;;;5096971;28;20463;-68
2023/06/03 00:42:01;;;;;;;2.00;1.80;;;10.90;1.00;;;;;;5097142;28;20457;-68
2023/06/03 00:44:28;;;;;;;3.13;2.20;;;11.00;1.00;;;;;;5096730;28;20453;-69
2023/06/03 00:46:55;;;;;;;2.03;1.80;;;10.90;1.00;;;;;;5097201;28;20459;-69
2023/06/03 00:49:22;;;;;;;3.17;1.93;;;10.90;1.00;;;;;;5096751;28;20481;-68
2023/06/03 00:51:49;;;;;;;2.30;1.57;;;10.90;1.00;;;;;;5096515;28;20567;-68
2023/06/03 00:54:16;;;;;;;2.10;1.50;;;10.90;1.00;;;;;;5096441;28;20859;-69
2023/06/03 00:56:45;;;;;;;2.53;1.80;;;10.80;1.00;;;;;;5096350;28;20463;-69
2023/06/03 00:59:15;;;;;;;1.80;1.50;;;10.80;1.00;;;;;;5096845;28;20453;-69
2023/06/03 01:01:43;;;;;;;3.20;1.90;;;10.80;1.00;;;;;;5096816;28;20438;-68
2023/06/03 01:04:10;;;;;;;3.40;2.07;;;10.80;1.00;;;;;;5095483;28;20711;-69
2023/06/03 01:06:47;;;;;;;4.33;1.80;;;10.70;1.00;;;;;;5096995;28;20453;-68
2023/06/03 01:09:28;;;;;;;2.23;1.50;;;10.70;1.00;;;;;;5096402;28;20442;-69
2023/06/03 01:12:07;;;;;;;4.50;1.83;;;10.60;1.00;;;;;;5096243;28;20476;-69
2023/06/03 01:14:42;;;;;;;2.70;1.67;;;10.60;1.00;;;;;;5096675;28;20452;-68
2023/06/03 01:17:10;;;;;;;3.20;1.90;;;10.60;1.00;;;;;;5096582;28;20441;-69
2023/06/03 01:19:47;;;;;;;10.43;2.07;;;10.50;1.00;;;;;;5096398;28;20466;-68
2023/06/03 01:22:15;;;;;;;5.30;1.57;;;10.50;1.00;;;;;;5096351;28;20437;-68
2023/06/03 01:24:43;;;;;;;3.00;1.37;;;10.50;1.00;;;;;;5096441;28;20790;-68
2023/06/03 01:27:12;;;;;;;3.60;1.50;;;10.40;1.00;;;;;;5096241;28;20457;-69
2023/06/03 01:29:41;;;;;;;4.97;1.80;;;10.40;1.00;;;;;;5096196;28;20471;-69
2023/06/03 01:32:12;;;;;;;5.90;1.60;;;10.40;1.00;;;;;;5096230;28;20453;-68
2023/06/03 01:34:40;;;;;;;1.77;1.43;;;10.40;1.00;;;;;;5095773;28;20442;-69
2023/06/03 01:37:08;;;;;;;2.00;1.30;;;10.30;1.00;;;;;;5095791;28;20481;-68
2023/06/03 01:39:35;;;;;;;2.07;1.63;;;10.30;1.00;;;;;;5095965;28;20453;-69
2023/06/03 01:42:04;;;;;;;1.90;1.40;;;10.30;1.00;;;;;;5095592;28;20918;-68
2023/06/03 01:44:31;;;;;;;2.10;1.40;;;10.20;1.00;;;;;;5095813;28;20544;-68
2023/06/03 01:46:58;;;;;;;2.53;1.70;;;10.20;1.00;;;;;;5095803;28;20940;-68
2023/06/03 01:49:25;;;;;;;3.50;1.37;;;10.20;1.00;;;;;;5095813;28;20529;-68
2023/06/03 01:51:52;;;;;;;2.20;1.40;;;10.20;1.00;;;;;;5095516;28;20492;-68
2023/06/03 01:54:25;;;;;;;1.70;1.20;;;10.10;1.00;;;;;;5095690;28;20449;-68
2023/06/03 01:56:51;;;;;;;2.27;1.23;;;10.10;1.00;;;;;;5095588;28;20608;-68
2023/06/03 01:59:20;;;;;;;2.20;1.30;;;10.00;1.00;;;;;;5095275;28;20457;-68
2023/06/03 02:01:47;;;;;;;4.23;1.47;;;10.00;1.00;;;;;;5095126;28;20456;-68
2023/06/03 02:04:14;;;;;;;3.60;1.60;;;10.00;1.00;;;;;;5095294;28;20453;-68
2023/06/03 02:06:41;;;;;;;2.60;1.43;;;9.90;1.00;;;;;;5095117;28;20522;-68
2023/06/03 02:09:11;;;;;;;3.27;1.37;;;9.90;1.00;;;;;;5095292;28;20463;-68
2023/06/03 02:11:37;;;;;;;2.17;1.20;;;9.90;1.00;;;;;;5095105;28;20474;-68
2023/06/03 02:14:04;;;;;;;2.10;1.50;;;9.90;1.00;;;;;;5094885;28;20544;-68
2023/06/03 02:16:33;;;;;;;2.37;1.70;;;9.90;1.00;;;;;;5094474;28;20473;-68
2023/06/03 02:19:03;;;;;;;2.80;1.27;;;9.80;1.00;;;;;;5094883;28;20458;-68
2023/06/03 02:21:30;;;;;;;3.10;1.60;;;9.80;1.00;;;;;;5094737;28;20449;-68
2023/06/03 02:23:56;;;;;;;1.50;1.10;;;9.80;1.00;;;;;;5094733;28;20856;-68
2023/06/03 02:26:23;;;;;;;2.03;1.47;;;9.80;1.00;;;;;;5094984;28;20518;-68
2023/06/03 02:28:50;;;;;;;2.40;1.70;;;9.80;1.00;;;;;;5094943;28;20464;-68
2023/06/03 02:31:17;;;;;;;1.97;1.53;;;9.80;1.00;;;;;;5094647;28;21021;-69
2023/06/03 02:33:46;;;;;;;1.70;1.30;;;9.70;1.00;;;;;;5094348;28;20464;-67
2023/06/03 02:36:15;;;;;;;2.37;1.40;;;9.70;1.00;;;;;;5094389;28;20592;-67
2023/06/03 02:38:42;;;;;;;1.40;1.13;;;9.70;1.00;;;;;;5095057;28;20449;-68
2023/06/03 02:41:09;;;;;;;3.37;1.13;;;9.70;1.00;;;;;;5094240;28;20460;-68
2023/06/03 02:43:36;;;;;;;4.43;1.40;;;9.70;1.00;;;;;;5094128;28;20461;-67
2023/06/03 02:46:02;;;;;;;1.40;1.20;;;9.70;1.00;;;;;;5094707;28;20769;-68
2023/06/03 02:48:29;;;;;;;3.27;1.53;;;9.70;1.00;;;;;;5094407;28;20449;-68
2023/06/03 02:50:57;;;;;;;1.97;1.30;;;9.60;1.00;;;;;;5094647;28;20496;-69
2023/06/03 02:53:24;;;;;;;1.50;1.23;;;9.60;1.00;;;;;;5094705;28;20450;-69
2023/06/03 02:55:51;;;;;;;2.57;1.40;;;9.60;1.00;;;;;;5094665;28;20781;-68
2023/06/03 02:58:19;;;;;;;1.90;1.17;;;9.60;1.00;;;;;;5094961;28;20548;-69
2023/06/03 03:00:45;;;;;;;2.37;1.50;;;9.50;1.00;;;;;;5094550;28;20453;-69
2023/06/03 03:03:13;;;;;;;2.13;1.47;;;9.50;1.00;;;;;;5094492;28;20483;-69
2023/06/03 03:05:40;;;;;;;5.80;1.40;;;9.50;1.00;;;;;;5094201;28;20922;-69
2023/06/03 03:08:08;;;;;;;1.70;1.47;;;9.50;1.00;;;;;;5094013;28;20933;-69
2023/06/03 03:10:35;;;;;;;2.50;1.23;;;9.50;1.00;;;;;;5094357;28;20477;-69
2023/06/03 03:13:02;;;;;;;1.90;1.30;;;9.50;1.00;;;;;;5094750;28;20874;-69
2023/06/03 03:15:29;;;;;;;2.07;1.37;;;9.50;1.00;;;;;;5094390;28;20452;-68
2023/06/03 03:17:56;;;;;;;2.23;1.40;;;9.50;1.00;;;;;;5094363;28;20463;-68
2023/06/03 03:20:24;;;;;;;2.33;1.17;;;9.50;1.00;;;;;;5094364;28;20985;-68
2023/06/03 03:22:51;;;;;;;4.60;1.50;;;9.50;1.00;;;;;;5094326;28;20457;-68
2023/06/03 03:25:20;;;;;;;6.07;4.10;;;9.50;1.00;;;;;;5094310;28;20538;-68
2023/06/03 03:27:47;;;;;;;3.20;1.30;;;9.40;1.00;;;;;;5096364;28;20510;-69
2023/06/03 03:30:14;;;;;;;2.13;1.70;;;9.40;1.00;;;;;;5098133;28;20492;-68
2023/06/03 03:32:41;;;;;;;1.70;1.60;;;9.40;1.00;;;;;;5098082;28;20925;-68
2023/06/03 03:35:15;;;;;;;2.43;1.20;;;9.40;1.00;;;;;;5097981;28;20920;-68
2023/06/03 03:37:43;;;;;;;4.00;2.23;;;9.40;1.00;;;;;;5097733;28;20488;-68
2023/06/03 03:40:17;;;;;;;2.17;1.20;;;9.40;1.00;;;;;;5098203;28;20856;-68
2023/06/03 03:42:49;;;;;;;1.80;1.23;;;9.40;1.00;;;;;;5098225;28;20447;-68
2023/06/03 03:45:18;;;;;;;1.60;1.20;;;9.40;1.00;;;;;;5098571;28;20442;-68
2023/06/03 03:47:45;;;;;;;2.90;1.60;;;9.30;1.00;;;;;;5098427;28;20453;-67
2023/06/03 03:50:38;;;;;;;3.47;1.20;;;9.30;1.00;;;;;;5097968;28;20461;-69
2023/06/03 03:53:07;;;;;;;2.57;1.57;;;9.20;1.00;;;;;;5097804;28;20949;-69
2023/06/03 03:55:38;;;;;;;1.40;1.17;;;9.20;1.00;;;;;;5097879;28;20453;-67
2023/06/03 03:58:16;;;;;;;1.60;1.33;;;9.10;1.00;;;;;;5097989;28;20452;-68
2023/06/03 04:00:43;;;;;;;4.73;1.70;;;9.10;1.00;;;;;;5097849;28;20447;-69
2023/06/03 04:03:12;;;;;;;1.80;1.30;;;9.10;1.00;;;;;;5097918;28;20464;-68
2023/06/03 04:05:39;;;;;;;1.50;1.10;;;9.10;1.00;;;;;;5097534;28;20464;-68
2023/06/03 04:08:06;;;;;;;2.33;1.50;;;9.10;1.00;;;;;;5097457;28;20504;-68
2023/06/03 04:10:34;;;;;;;2.70;1.67;;;9.10;1.00;;;;;;5097768;28;20866;-68
2023/06/03 04:13:00;;;;;;;1.60;1.13;;;9.10;1.00;;;;;;5097722;28;20453;-67
2023/06/03 04:15:33;;;;;;;2.87;1.47;;;9.10;1.00;;;;;;5097321;28;20552;-67
2023/06/03 04:18:00;;;;;;;1.63;1.53;;;9.10;1.00;;;;;;5097395;28;20441;-67
2023/06/03 04:20:42;;;;;;;2.23;1.60;;;9.10;1.00;;;;;;5097644;28;20453;-68
2023/06/03 04:23:15;;;;;;;1.43;1.20;;;9.20;1.00;;;;;;5097601;28;20772;-67
2023/06/03 04:25:43;;;;;;;2.50;1.30;;;9.20;1.00;;;;;;5097565;28;20450;-67
2023/06/03 04:28:10;;;;;;;4.70;1.37;;;9.30;1.00;;;;;;5096910;28;20500;-67
2023/06/03 04:30:39;;;;;;;2.30;1.57;;;9.30;1.00;;;;;;5097368;28;20549;-67
2023/06/03 04:33:06;;;;;;;3.40;1.70;;;9.30;1.00;;;;;;5097404;28;20915;-69
2023/06/03 04:35:33;;;;;;;1.60;1.50;;;9.30;1.00;;;;;;5097022;28;20940;-69
2023/06/03 04:38:00;;;;;;;1.97;1.47;;;9.40;1.00;;;;;;5096553;28;20481;-68
2023/06/03 04:40:27;;;;;;;3.77;1.33;;;9.40;1.00;;;;;;5096872;28;20548;-68
2023/06/03 04:42:55;;;;;;;2.27;1.40;;;9.40;1.00;;;;;;5096555;28;20456;-68
2023/06/03 04:45:23;;;;;;;5.97;1.63;;;9.40;1.00;;;;;;5096973;28;20673;-68
2023/06/03 04:47:58;;;;;;;2.27;1.83;;;9.50;1.00;;;;;;5096628;28;20452;-67
2023/06/03 04:50:27;;;;;;;1.83;1.57;;;9.50;1.00;;;;;;5096684;28;20433;-68
2023/06/03 04:52:56;;;;;;;2.60;1.40;;;9.60;1.00;;;;;;5096582;28;20485;-68
2023/06/03 04:55:23;;;;;;;2.00;1.40;;;9.60;1.00;;;;;;5096592;28;20472;-68
2023/06/03 04:57:50;;;;;;;1.70;1.30;;;9.70;1.00;;;;;;5096510;28;20469;-67
2023/06/03 05:00:19;;;;;;;3.80;1.47;;;9.70;1.00;;;;;;5096275;28;20488;-68
2023/06/03 05:02:54;;;;;;;3.67;1.43;;;9.80;1.00;;;;;;5096302;28;20457;-67
2023/06/03 05:05:23;;;;;;;4.40;1.40;;;9.80;1.00;;;;;;5096606;28;20543;-67
2023/06/03 05:07:51;;;;;;;2.80;1.40;;;9.90;1.00;;;;;;5096646;28;20453;-67
2023/06/03 05:10:17;;;;;;;4.13;2.17;;;9.90;1.00;;;;;;5096197;28;20453;-67
2023/06/03 05:12:45;;;;;;;3.43;1.60;;;10.00;1.00;;;;;;5096078;28;20487;-68
2023/06/03 05:15:12;;;;;;;2.43;1.50;;;10.00;1.00;;;;;;5096129;28;20458;-67
2023/06/03 05:17:39;;;;;;;5.00;1.60;;;10.10;1.00;;;;;;5096042;28;20906;-67
2023/06/03 05:20:08;;;;;;;2.43;1.30;;;10.10;1.00;;;;;;5096112;28;20871;-68
2023/06/03 05:22:36;;;;;;;3.07;1.67;;;10.20;1.00;;;;;;5096304;28;20449;-68
2023/06/03 05:25:04;;;;;;;5.27;1.63;;;10.30;1.00;;;;;;5096036;28;20981;-67
2023/06/03 05:27:31;;;;;;;2.30;1.73;;;10.40;1.00;;;;;;5096375;28;20548;-67
2023/06/03 05:29:58;;;;;;;2.70;1.53;;;10.40;1.00;;;;;;5095945;28;20457;-68
2023/06/03 05:32:25;;;;;;;6.60;1.80;;;10.50;1.00;;;;;;5095941;28;20487;-67
2023/06/03 05:34:51;;;;;;;2.57;1.70;;;10.50;1.00;;;;;;5096093;28;20462;-68
2023/06/03 05:37:18;;;;;;;6.83;1.90;;;10.60;1.00;;;;;;5095899;28;20822;-68
2023/06/03 05:39:46;;;;;;;5.90;1.90;;;10.60;1.00;;;;;;5095687;28;20453;-68
2023/06/03 05:42:13;;;;;;;2.03;1.50;;;10.70;1.00;;;;;;5095851;28;20450;-68
2023/06/03 05:44:40;;;;;;;2.13;1.60;;;10.70;1.00;;;;;;5095668;28;20457;-68
2023/06/03 05:47:07;;;;;;;2.13;1.87;;;10.70;1.00;;;;;;5096353;28;20457;-68
2023/06/03 05:49:34;;;;;;;2.80;1.90;;;10.80;1.00;;;;;;5094657;28;20942;-68
2023/06/03 05:52:01;;;;;;;3.23;1.80;;;10.80;1.00;;;;;;5095371;28;20477;-68
2023/06/03 05:54:29;;;;;;;3.07;1.60;;;10.90;1.00;;;;;;5095792;28;20496;-68
2023/06/03 05:56:58;;;;;;;3.30;1.80;;;10.90;1.00;;;;;;5095794;28;20461;-68
2023/06/03 05:59:25;;;;;;;2.87;1.60;;;11.00;1.00;;;;;;5095725;28;20458;-68
2023/06/03 06:01:52;;;;;;;3.70;1.90;;;11.00;1.00;;;;;;5095608;28;20449;-68
2023/06/03 06:04:19;;;;;;;7.03;1.67;;;11.10;1.00;;;;;;5095615;28;20533;-68
2023/06/03 06:06:46;;;;;;;7.00;2.93;;;11.20;1.00;;;;;;5095267;28;20766;-68
2023/06/03 06:09:13;;;;;;;5.70;3.57;;;11.20;1.00;;;;;;5095167;28;20548;-69
2023/06/03 06:11:40;;;;;;;9.60;7.30;;;11.30;1.00;;;;;;5095439;28;20472;-69
2023/06/03 06:14:08;;;;;;;22.23;18.40;;;11.30;1.00;;;;;;5095347;28;20536;-68
2023/06/03 06:16:35;;;;;;;2.80;2.50;;;11.40;1.00;;;;;;5095471;28;20898;-68
2023/06/03 06:19:01;;;;;;;13.20;10.33;;;11.50;1.00;;;;;;5095364;28;20458;-69
2023/06/03 06:21:28;;;;;;;7.23;5.50;;;11.60;1.00;;;;;;5095240;28;20453;-69
2023/06/03 06:23:56;;;;;;;5.47;2.60;;;11.60;1.00;;;;;;5094977;28;20449;-68
2023/06/03 06:26:23;;;;;;;8.03;1.97;;;11.70;1.00;;;;;;5095170;28;20463;-69
2023/06/03 06:28:50;;;;;;;5.13;3.10;;;11.80;1.00;;;;;;5095042;28;20465;-68
2023/06/03 06:31:19;;;;;;;5.17;3.00;;;11.90;1.00;;;;;;5095297;28;20839;-69
2023/06/03 06:33:47;;;;;;;7.00;4.17;;;12.00;1.00;;;;;;5094674;28;20459;-69
2023/06/03 06:36:28;;;;;;;7.60;3.07;;;12.00;1.00;;;;;;5094769;28;20481;-69
2023/06/03 06:38:55;;;;;;;5.17;3.47;;;12.10;1.00;;;;;;5094746;28;20438;-69
2023/06/03 06:41:22;;;;;;;11.27;6.20;;;12.20;1.00;;;;;;5094797;28;20453;-69
2023/06/03 06:43:49;;;;;;;14.13;9.60;;;12.20;1.00;;;;;;5094849;28;20449;-69
2023/06/03 06:46:15;;;;;;;11.90;10.00;;;12.30;1.00;;;;;;5094977;28;20764;-69
2023/06/03 06:48:44;;;;;;;3.60;2.77;;;12.40;1.00;;;;;;5094493;28;20457;-68
2023/06/03 06:51:12;;;;;;;5.13;2.50;;;12.50;1.00;;;;;;5094175;28;20454;-69
2023/06/03 06:53:39;;;;;;;7.90;4.63;;;12.50;1.00;;;;;;5094599;28;20560;-69
2023/06/03 06:56:08;;;;;;;3.50;3.20;;;12.60;1.00;;;;;;5094515;28;20460;-69
2023/06/03 06:58:36;;;;;;;6.87;4.20;;;12.70;1.00;;;;;;5094397;28;20476;-69
2023/06/03 07:01:05;;;;;;;8.83;5.80;;;12.80;1.00;;;;;;5094653;28;20453;-69
2023/06/03 07:03:33;;;;;;;5.07;2.10;;;12.90;1.00;;;;;;5094379;28;20526;-69
2023/06/03 07:06:01;;;;;;;2.03;1.60;;;12.90;1.00;;;;;;5094580;28;20817;-68
2023/06/03 07:08:28;;;;;;;3.00;1.60;;;13.00;1.00;;;;;;5094170;28;20454;-68
2023/06/03 07:10:58;;;;;;;3.40;2.03;;;13.10;1.00;;;;;;5094362;28;20518;-68
2023/06/03 07:13:25;;;;;;;5.70;2.40;;;13.10;1.00;;;;;;5094351;28;20966;-68
2023/06/03 07:15:52;;;;;;;3.93;2.57;;;13.20;1.00;;;;;;5094594;28;20510;-68
2023/06/03 07:18:21;;;;;;;4.07;1.60;;;13.30;1.00;;;;;;5094261;28;21002;-68
2023/06/03 07:20:50;;;;;;;9.70;2.30;;;13.40;1.00;;;;;;5094421;28;20544;-67
2023/06/03 07:23:22;;;;;;;2.17;1.43;;;13.60;1.00;;;;;;5094362;28;20453;-68
2023/06/03 07:25:50;;;;;;;2.57;2.00;;;13.60;1.00;;;;;;5094794;28;20446;-68
2023/06/03 07:28:18;;;;;;;2.77;1.90;;;13.70;1.00;;;;;;5094104;28;20459;-67
2023/06/03 07:30:47;;;;;;;2.77;1.93;;;13.80;1.00;;;;;;5093898;28;20457;-68
2023/06/03 07:33:26;;;;;;;3.20;1.30;;;13.80;1.00;;;;;;5093487;28;20786;-67
2023/06/03 07:35:54;;;;;;;7.83;2.07;;;13.90;1.00;;;;;;5093390;28;20881;-68
2023/06/03 07:38:47;;;;;;;4.00;1.40;;;14.00;1.00;;;;;;5093833;28;20779;-68
2023/06/03 07:41:21;;;;;;;3.50;2.10;;;14.00;1.00;;;;;;5094143;28;20924;-68
2023/06/03 07:43:48;;;;;;;2.90;1.97;;;14.10;1.00;;;;;;5093866;28;20448;-68
2023/06/03 07:46:16;;;;;;;4.10;1.90;;;14.20;1.00;;;;;;5093587;28;20453;-67
2023/06/03 07:48:43;;;;;;;4.33;1.83;;;14.20;1.00;;;;;;5094074;28;20468;-68
2023/06/03 07:51:18;;;;;;;2.37;1.70;;;14.30;1.00;;;;;;5093837;28;20542;-67
2023/06/03 07:53:46;;;;;;;6.90;1.80;;;14.40;1.00;;;;;;5093391;28;20469;-68
2023/06/03 07:56:14;;;;;;;2.30;1.83;;;14.40;1.00;;;;;;5093615;28;20453;-68
2023/06/03 07:58:41;;;;;;;3.63;2.27;;;14.50;1.00;;;;;;5093780;28;20463;-68
2023/06/03 08:01:09;;;;;;;2.83;1.83;;;14.60;1.00;;;;;;5093788;28;20465;-67
2023/06/03 08:03:36;;;;;;;4.40;1.87;;;14.70;1.00;;;;;;5093698;28;20732;-68
2023/06/03 08:06:08;;;;;;;3.30;2.17;;;14.80;1.00;;;;;;5093936;28;20576;-68
2023/06/03 08:08:35;;;;;;;2.53;1.77;;;14.90;1.00;;;;;;5093414;28;20545;-68
2023/06/03 08:11:03;;;;;;;2.07;1.40;;;15.10;1.00;;;;;;5093392;28;20548;-68
2023/06/03 08:13:30;;;;;;;6.57;1.67;;;15.20;1.00;;;;;;5095140;28;20477;-68
2023/06/03 08:15:57;;;;;;;3.07;1.77;;;15.30;1.00;;;;;;5097356;28;20461;-68
2023/06/03 08:18:42;;;;;;;8.00;1.83;;;15.50;1.00;;;;;;5097745;28;20467;-68
2023/06/03 08:21:09;;;;;;;4.43;1.87;;;15.50;1.00;;;;;;5097912;28;20917;-68
2023/06/03 08:23:36;;;;;;;2.70;1.50;;;15.60;1.00;;;;;;5097506;28;20806;-68
2023/06/03 08:26:05;;;;;;;3.97;1.70;;;15.70;1.00;;;;;;5097437;28;20892;-68
2023/06/03 08:28:32;;;;;;;2.57;1.50;;;15.80;1.00;;;;;;5097209;28;20453;-68
2023/06/03 08:30:59;;;;;;;3.70;1.33;;;15.80;1.00;;;;;;5097384;28;20456;-68
2023/06/03 08:33:26;;;;;;;3.43;1.37;;;15.90;1.00;;;;;;5097467;28;20481;-69
2023/06/03 08:35:53;;;;;;;2.27;1.30;;;16.00;1.00;;;;;;5096856;28;20552;-69
2023/06/03 08:38:20;;;;;;;6.23;1.57;;;16.10;1.00;;;;;;5097092;28;20453;-69
2023/06/03 08:40:48;;;;;;;3.53;1.67;;;16.10;1.00;;;;;;5096743;28;20464;-69
2023/06/03 08:43:18;;;;;;;4.63;1.83;;;16.10;1.00;;;;;;5096585;28;20458;-69
2023/06/03 08:45:56;;;;;;;2.40;1.40;;;16.10;1.00;;;;;;5096733;28;20464;-69
2023/06/03 08:48:32;;;;;;;2.80;1.30;;;16.20;1.00;;;;;;5096750;28;20447;-70
2023/06/03 08:51:05;;;;;;;2.97;1.43;;;16.20;1.00;;;;;;5096910;28;20743;-69
2023/06/03 08:53:38;;;;;;;3.70;1.60;;;16.30;1.00;;;;;;5096300;28;20511;-69
2023/06/03 08:56:05;;;;;;;3.43;1.63;;;16.40;1.00;;;;;;5096937;28;20445;-70
2023/06/03 08:58:37;;;;;;;2.23;1.20;;;16.50;1.00;;;;;;5096421;28;20457;-70
2023/06/03 09:01:05;;;;;;;3.60;1.53;;;16.50;1.00;;;;;;5096205;28;20452;-69
2023/06/03 09:03:32;;;;;;;2.77;1.27;;;16.60;1.00;;;;;;5096594;28;20556;-69
2023/06/03 09:06:01;;;;;;;2.40;1.30;;;16.70;1.00;;;;;;5097100;28;20465;-69
2023/06/03 09:08:28;;;;;;;6.53;1.90;;;16.80;1.00;;;;;;5096663;28;20828;-69
2023/06/03 09:10:57;;;;;;;2.47;1.33;;;16.90;1.00;;;;;;5095971;28;20457;-70
2023/06/03 09:13:24;;;;;;;2.83;1.60;;;16.90;1.00;;;;;;5096447;28;20486;-69
2023/06/03 09:15:53;;;;;;;4.37;1.50;;;16.90;1.00;;;;;;5096116;28;20572;-69
2023/06/03 09:18:20;;;;;;;3.23;1.60;;;17.00;1.00;;;;;;5096049;28;20993;-69
2023/06/03 09:20:46;;;;;;;2.50;1.63;;;17.00;1.00;;;;;;5096130;28;20463;-69
2023/06/03 09:23:16;;;;;;;2.50;1.20;;;17.00;1.00;;;;;;5095821;28;20449;-69
2023/06/03 09:25:44;;;;;;;2.47;1.30;;;17.10;1.00;;;;;;5095127;28;20482;-69
2023/06/03 09:28:11;;;;;;;5.17;1.53;;;17.20;1.00;;;;;;5095854;28;20553;-69
2023/06/03 09:30:38;;;;;;;4.97;1.50;;;17.20;1.00;;;;;;5095507;28;21012;-69
2023/06/03 09:33:06;;;;;;;2.53;1.40;;;17.30;1.00;;;;;;5095315;28;20474;-69
2023/06/03 09:35:33;;;;;;;3.57;1.93;;;17.50;1.00;;;;;;5095232;28;20550;-69
2023/06/03 09:38:01;;;;;;;1.53;0.97;;;17.50;1.00;;;;;;5095357;28;20572;-69
2023/06/03 09:40:29;;;;;;;6.47;1.50;;;17.60;1.00;;;;;;5095278;28;20457;-69
2023/06/03 09:42:57;;;;;;;3.53;3.20;;;17.60;1.00;;;;;;5095435;28;20485;-69
2023/06/03 09:45:28;;;;;;;4.90;1.70;;;17.70;1.00;;;;;;5095724;28;20522;-69
2023/06/03 09:47:55;;;;;;;2.30;1.30;;;17.90;1.00;;;;;;5095580;28;20445;-69
2023/06/03 09:50:24;;;;;;;2.13;1.47;;;17.90;1.00;;;;;;5095721;28;20500;-68
2023/06/03 09:52:51;;;;;;;2.53;1.23;;;18.00;1.00;;;;;;5095354;28;20745;-68
2023/06/03 09:55:22;;;;;;;3.47;1.47;;;18.00;1.00;;;;;;5095290;28;20445;-68
2023/06/03 09:58:03;;;;;;;1.50;1.17;;;18.10;1.00;;;;;;5095446;28;20450;-68
2023/06/03 10:00:33;;;;;;;2.17;1.27;;;18.20;1.00;;;;;;5095047;28;20906;-68
2023/06/03 10:03:07;;;;;;;4.33;2.10;;;18.20;1.00;;;;;;5095548;28;20461;-68
2023/06/03 10:05:36;;;;;;;2.40;1.60;;;18.10;1.00;;;;;;5095073;28;20437;-68
2023/06/03 10:08:03;;;;;;;1.83;1.20;;;18.10;1.00;;;;;;5094825;28;20560;-68
2023/06/03 10:10:30;;;;;;;4.53;2.00;;;18.20;1.00;;;;;;5095403;28;20461;-68
2023/06/03 10:12:57;;;;;;;4.93;1.40;;;18.20;1.00;;;;;;5094847;28;21045;-69
2023/06/03 10:15:36;;;;;;;4.00;2.00;;;18.30;1.00;;;;;;5094894;28;20453;-68
2023/06/03 10:18:03;;;;;;;5.90;1.97;;;18.40;1.00;;;;;;5095149;28;20514;-68
2023/06/03 10:20:38;;;;;;;3.20;1.60;;;18.50;1.00;;;;;;5095771;28;20463;-70
2023/06/03 10:23:07;;;;;;;2.60;1.20;;;18.50;1.00;;;;;;5095337;28;20461;-70
2023/06/03 10:25:41;;;;;;;4.13;1.40;;;18.50;1.00;;;;;;5095290;28;20918;-70
2023/06/03 10:28:09;;;;;;;2.13;1.20;;;18.60;1.00;;;;;;5095738;28;20437;-71
2023/06/03 10:30:36;;;;;;;2.37;1.50;;;18.60;1.00;;;;;;5098028;28;20485;-69
2023/06/03 10:33:04;;;;;;;2.23;1.30;;;18.70;1.00;;;;;;5106517;28;20540;-68
2023/06/03 10:35:32;;;;;;;3.50;1.30;;;18.70;1.00;;;;;;5107145;28;20491;-68
2023/06/03 10:38:03;;;;;;;4.10;1.27;;;18.80;1.00;;;;;;5108331;28;20473;-68
2023/06/03 10:40:30;;;;;;;3.13;1.37;;;18.80;1.00;;;;;;5110911;28;20455;-68
2023/06/03 10:42:58;;;;;;;3.27;1.30;;;18.90;1.00;;;;;;5110605;28;20544;-68
2023/06/03 10:45:27;;;;;;;3.00;1.63;;;19.00;1.00;;;;;;5108058;28;20511;-69
2023/06/03 10:47:59;;;;;;;3.00;1.37;;;19.10;1.00;;;;;;5105950;28;20457;-69
2023/06/03 10:50:34;;;;;;;3.10;1.20;;;19.20;1.00;;;;;;5104926;28;20452;-68
2023/06/03 10:53:13;;;;;;;3.87;3.23;;;19.20;1.00;;;;;;5105583;28;20556;-69
2023/06/03 10:55:51;;;;;;;2.47;1.40;;;19.30;1.00;;;;;;5105271;28;20466;-69
2023/06/03 10:58:22;;;;;;;6.30;1.70;;;19.40;1.00;;;;;;5105182;28;20441;-68
2023/06/03 11:00:56;;;;;;;2.47;1.50;;;19.50;1.00;;;;;;5104211;28;20441;-69
2023/06/03 11:03:24;;;;;;;3.20;1.80;;;19.60;1.00;;;;;;5101915;28;20449;-68
2023/06/03 11:05:52;;;;;;;3.23;1.50;;;19.70;1.00;;;;;;5100386;28;20540;-67
2023/06/03 11:08:57;;;;;;;2.70;1.43;;;19.80;1.00;;;;;;5101576;28;20453;-69
2023/06/03 11:12:02;;;;;;;2.27;1.63;;;20.00;1.00;;;;;;5085156;28;20460;-67
2023/06/03 11:14:55;;;;;;;4.70;1.50;;;20.10;1.00;;;;;;5094653;28;20495;-67
2023/06/03 11:17:23;;;;;;;3.50;1.30;;;20.30;1.00;;;;;;5094953;28;20449;-66
2023/06/03 11:19:54;;;;;;;3.33;1.17;;;20.50;1.00;;;;;;5094604;28;20771;-67
2023/06/03 11:22:41;;;;;;;2.53;1.20;;;20.70;1.00;;;;;;5093919;28;20882;-67
2023/06/03 11:25:25;;;;;;;1.60;1.30;;;21.40;1.00;;;;;;5094290;28;20454;-67
2023/06/03 11:27:53;;;;;;;1.80;1.20;;;22.30;1.00;;;;;;5094700;28;20546;-68
2023/06/03 11:30:20;;;;;;;2.30;1.33;;;23.40;1.00;;;;;;5095043;28;20453;-67
2023/06/03 11:33:10;;;;;;;3.30;1.07;;;24.40;1.00;;;;;;5094566;28;20467;-67
2023/06/03 11:35:37;;;;;;;4.70;1.73;;;25.70;1.00;;;;;;5093935;28;20499;-68
2023/06/03 11:38:04;;;;;;;4.10;1.63;;;26.20;1.00;;;;;;5093616;28;20477;-67
2023/06/03 11:40:44;;;;;;;1.83;1.23;;;26.70;1.00;;;;;;5094626;28;20547;-68
2023/06/03 11:43:12;;;;;;;5.87;1.60;;;27.40;1.00;;;;;;5094144;28;20466;-69
2023/06/03 11:45:39;;;;;;;3.67;1.10;;;27.70;1.00;;;;;;5094593;28;20464;-66
2023/06/03 11:48:09;;;;;;;2.43;0.97;;;28.00;1.00;;;;;;5095699;28;20467;-66
2023/06/03 11:50:47;;;;;;;3.40;1.40;;;28.40;1.00;;;;;;5098781;28;20453;-66
2023/06/03 11:53:31;;;;;;;3.50;1.40;;;28.80;1.00;;;;;;5098000;28;20511;-67
2023/06/03 11:56:08;;;;;;;2.80;1.30;;;29.10;1.00;;;;;;5097900;28;20453;-67
2023/06/03 11:58:37;;;;;;;5.03;1.30;;;29.20;1.00;;;;;;5097978;28;20441;-67
2023/06/03 12:01:06;;;;;;;3.40;1.40;;;29.00;1.00;;;;;;5097915;28;20984;-67
2023/06/03 12:03:33;;;;;;;3.53;1.20;;;28.70;1.00;;;;;;5097739;28;20453;-67
2023/06/03 12:06:02;;;;;;;2.20;1.03;;;28.30;1.00;;;;;;5097666;28;20457;-67
2023/06/03 12:08:42;;;;;;;1.80;1.00;;;28.30;1.00;;;;;;5097666;28;20464;-67
2023/06/03 12:11:09;;;;;;;2.03;1.27;;;28.60;1.00;;;;;;5097731;28;20506;-67
2023/06/03 12:13:42;;;;;;;2.60;1.47;;;28.80;1.00;;;;;;5097721;28;20491;-67
2023/06/03 12:16:25;;;;;;;2.80;1.07;;;29.00;1.00;;;;;;5097628;28;20556;-67
2023/06/03 12:18:52;;;;;;;2.00;1.33;;;29.00;1.00;;;;;;5097439;28;20445;-66
2023/06/03 12:21:20;;;;;;;4.50;1.47;;;28.80;1.00;;;;;;5097640;28;20998;-66
2023/06/03 12:23:47;;;;;;;2.30;1.40;;;29.00;1.00;;;;;;5097433;28;20453;-66
2023/06/03 12:26:14;;;;;;;2.43;1.33;;;29.10;1.00;;;;;;5097651;28;20461;-66
2023/06/03 12:28:42;;;;;;;2.13;1.07;;;29.20;1.00;;;;;;5097752;28;20897;-66
2023/06/03 12:31:14;;;;;;;2.40;1.30;;;29.10;1.00;;;;;;5097602;28;20544;-66
2023/06/03 12:33:41;;;;;;;4.90;1.40;;;29.10;1.00;;;;;;5097465;28;20481;-66
2023/06/03 12:36:09;;;;;;;3.77;1.20;;;29.00;1.00;;;;;;5097440;28;20453;-66
2023/06/03 12:38:54;;;;;;;1.80;1.23;;;29.00;1.00;;;;;;5097299;28;20446;-66
2023/06/03 12:41:21;;;;;;;10.07;1.30;;;29.30;1.00;;;;;;5097056;28;20443;-66
2023/06/03 12:43:50;;;;;;;3.90;1.30;;;29.50;1.00;;;;;;5097199;28;20936;-66
2023/06/03 12:46:18;;;;;;;4.03;1.20;;;29.70;1.00;;;;;;5096977;28;20929;-66
2023/06/03 12:48:45;;;;;;;2.90;1.50;;;30.00;1.00;;;;;;5096832;28;20918;-65
2023/06/03 12:51:26;;;;;;;3.33;1.23;;;30.20;1.00;;;;;;5097095;28;20938;-65
2023/06/03 12:53:56;;;;;;;3.73;1.37;;;30.30;1.00;;;;;;5096711;28;20584;-64
2023/06/03 12:56:24;;;;;;;2.67;1.60;;;30.40;1.00;;;;;;5097097;28;20448;-64
2023/06/03 12:58:53;;;;;;;1.63;1.03;;;30.20;1.00;;;;;;5096940;28;20463;-64
2023/06/03 13:01:20;;;;;;;2.07;1.17;;;29.90;1.00;;;;;;5096940;28;20485;-65
2023/06/03 13:03:47;;;;;;;5.03;1.10;;;29.80;1.00;;;;;;5096855;28;20893;-65
2023/06/03 13:06:14;;;;;;;1.73;1.20;;;29.80;1.00;;;;;;5096383;28;20465;-64
2023/06/03 13:08:41;;;;;;;2.60;1.53;;;29.60;1.00;;;;;;5096566;28;20453;-64
2023/06/03 13:11:08;;;;;;;2.13;1.57;;;29.50;1.00;;;;;;5096600;28;20542;-64